Time;durP1;ratioP1;P1;durP2;ratioP2;P2;SDS_P1;SDS_P2;PMS_P1;PMS_P2;Temp;Humidity;BMP_temperature;BMP_pressure;BME280_temperature;BME280_humidity;BME280_pressure;Samples;Min_cycle;Max_cycle;Signal;HPM_P1;HPM_P2
2021/06/20 00:01:25;;;;;;;;;;;;;;;;;;;;;
2021/06/20 00:04:16;;;;;;;;;;;;;;;;;;;;;
2021/06/20 00:07:15;;;;;;;31.90;18.55;;;;;;;19.52;73.16;92674.78;5015043;28;20042;-95
2021/06/20 00:10:00;;;;;;;28.10;17.67;;;;;;;19.43;73.88;92679.47;5010797;28;20444;-95
2021/06/20 00:12:56;;;;;;;36.55;18.77;;;;;;;19.38;74.01;92685.03;4991846;28;20049;-93
2021/06/20 00:15:49;;;;;;;31.92;18.05;;;;;;;19.30;74.06;92692.78;5019983;28;20052;-94
2021/06/20 00:21:47;;;;;;;;;;;;;;;;;;;;;
2021/06/20 00:24:46;;;;;;;39.45;18.20;;;;;;;19.24;74.43;92683.50;5030570;28;20517;-94
2021/06/20 00:27:30;;;;;;;31.30;19.08;;;;;;;19.20;74.43;92656.09;5014433;28;20390;-94
2021/06/20 00:33:37;;;;;;;32.60;18.10;;;;;;;19.23;74.44;92631.53;5027201;28;20368;-94
2021/06/20 00:36:50;;;;;;;37.65;18.38;;;;;;;19.25;74.37;92610.75;4995134;28;20037;-94
2021/06/20 00:39:31;;;;;;;35.70;18.85;;;;;;;19.26;74.05;92604.31;4988908;28;20502;-94
2021/06/20 00:42:15;;;;;;;37.53;19.05;;;;;;;19.38;73.40;92630.03;4997753;28;20033;-95
2021/06/20 00:44:52;;;;;;;32.67;17.98;;;;;;;19.38;73.29;92634.59;4987384;28;20120;-93
2021/06/20 00:47:43;;;;;;;33.28;18.17;;;;;;;19.40;73.66;92648.31;4997045;28;20433;-93
2021/06/20 00:50:42;;;;;;;;;;;;;;;;;;;;;
2021/06/20 00:53:32;;;;;;;36.53;18.00;;;;;;;19.23;74.41;92626.25;5034515;28;20045;-92
2021/06/20 00:56:18;;;;;;;;;;;;;;;;;;;;;
2021/06/20 00:58:55;;;;;;;36.00;17.45;;;;;;;19.15;74.36;92611.22;4987442;28;20049;-94
2021/06/20 01:01:42;;;;;;;33.08;18.33;;;;;;;19.14;73.90;92620.28;5010586;28;20048;-94
2021/06/20 01:04:20;;;;;;;32.65;19.02;;;;;;;19.20;73.40;92613.63;4986581;28;20041;-94
2021/06/20 01:07:18;;;;;;;31.58;18.77;;;;;;;19.31;73.34;92622.66;5017840;28;20040;-94
2021/06/20 01:10:29;;;;;;;28.60;17.42;;;;;;;19.34;72.90;92605.28;5013490;28;20068;-94
2021/06/20 01:13:28;;;;;;;;;;;;;;;;;;;;;
2021/06/20 01:16:10;;;;;;;33.95;17.95;;;;;;;19.39;72.52;92604.31;5029513;28;20056;-94
2021/06/20 01:18:59;;;;;;;;;;;;;;;;;;;;;
2021/06/20 01:21:38;;;;;;;33.70;18.80;;;;;;;19.38;72.61;92586.81;5026898;28;20037;-93
2021/06/20 01:27:15;;;;;;;;;;;;;;;;;;;;;
2021/06/20 01:30:06;;;;;;;37.13;18.85;;;;;;;19.48;72.11;92587.09;5009800;28;20044;-93
2021/06/20 01:32:54;;;;;;;29.42;18.20;;;;;;;19.49;72.20;92598.50;5001920;28;20034;-93
2021/06/20 01:36:17;;;;;;;32.13;18.63;;;;;;;19.43;72.19;92605.94;4997762;28;20042;-94
2021/06/20 01:39:05;;;;;;;32.22;17.38;;;;;;;19.39;72.20;92599.00;5016572;28;20042;-93
2021/06/20 01:41:45;;;;;;;;;;;;;;;;;;;;;
2021/06/20 01:44:38;;;;;;;32.50;17.58;;;;;;;19.28;73.08;92614.63;5008498;28;20037;-94
2021/06/20 01:47:31;;;;;;;;;;;;;;;;;;;;;
2021/06/20 01:50:41;;;;;;;32.53;17.50;;;;;;;19.19;73.18;92619.28;5017343;28;20037;-93
2021/06/20 01:53:47;;;;;;;32.22;18.38;;;;;;;19.13;73.57;92618.72;5012492;28;20057;-94
2021/06/20 01:56:17;;;;;;;31.67;17.33;;;;;;;19.11;73.41;92610.34;5003564;28;20041;-94
2021/06/20 01:59:19;;;;;;;;;;;;;;;;;;;;;
2021/06/20 02:02:07;;;;;;;35.47;18.95;;;;;;;19.07;73.91;92604.16;4996457;28;20115;-94
2021/06/20 02:05:00;;;;;;;;;;;;;;;;;;;;;
2021/06/20 02:10:44;;;;;;;31.20;17.92;;;;;;;19.08;74.01;92616.31;5024148;28;20056;-94
2021/06/20 02:13:33;;;;;;;41.72;18.67;;;;;;;19.01;74.19;92614.25;4990269;28;20429;-95
2021/06/20 02:16:38;;;;;;;35.47;17.52;;;;;;;19.01;74.30;92616.13;5016185;28;20648;-94
2021/06/20 02:19:46;;;;;;;31.73;17.98;;;;;;;18.94;74.54;92606.06;5015870;28;20085;-94
2021/06/20 02:22:40;;;;;;;29.15;17.30;;;;;;;18.92;74.77;92603.75;5018577;28;20052;-94
2021/06/20 02:25:54;;;;;;;27.40;16.90;;;;;;;19.02;74.80;92612.34;5000893;28;20042;-94
2021/06/20 02:31:49;;;;;;;31.25;18.33;;;;;;;18.89;74.48;92607.09;5011609;28;20055;-93
2021/06/20 02:34:35;;;;;;;33.28;17.73;;;;;;;18.87;74.60;92601.34;4982372;28;20037;-93
2021/06/20 02:37:13;;;;;;;29.98;17.70;;;;;;;18.87;75.09;92601.34;5018107;28;20049;-94
2021/06/20 02:39:53;;;;;;;37.38;17.58;;;;;;;18.87;74.94;92605.88;4999621;28;20033;-95
2021/06/20 02:42:56;;;;;;;37.08;17.58;;;;;;;18.88;74.91;92618.03;4986722;28;20478;-93
2021/06/20 02:45:46;;;;;;;33.50;17.48;;;;;;;18.83;74.84;92611.06;4999693;28;20033;-95
2021/06/20 02:48:24;;;;;;;36.72;18.58;;;;;;;18.85;74.86;92610.75;5001001;28;20068;-93
2021/06/20 02:51:17;;;;;;;31.42;17.63;;;;;;;18.81;74.78;92615.94;5010155;28;20123;-94
2021/06/20 02:54:16;;;;;;;;;;;;;;;;;;;;;
2021/06/20 02:56:52;;;;;;;34.83;17.95;;;;;;;18.79;74.88;92610.19;5014732;28;20038;-94
2021/06/20 02:59:49;;;;;;;;;;;;;;;;;;;;;
2021/06/20 03:02:34;;;;;;;33.05;18.58;;;;;;;18.78;74.45;92600.69;5021511;28;20056;-94
2021/06/20 03:05:33;;;;;;;28.38;17.58;;;;;;;18.83;75.00;92610.28;5021394;28;20060;-94
2021/06/20 03:08:16;;;;;;;30.13;18.95;;;;;;;18.77;74.81;92601.00;5021448;28;20045;-93
2021/06/20 03:11:12;;;;;;;29.63;17.70;;;;;;;18.83;75.04;92607.66;5027037;28;20033;-95
2021/06/20 03:13:56;;;;;;;32.72;17.55;;;;;;;18.75;74.79;92596.00;5002795;28;20037;-94
2021/06/20 03:16:50;;;;;;;31.95;17.95;;;;;;;18.80;74.93;92598.47;5017062;28;20034;-94
2021/06/20 03:19:31;;;;;;;;;;;;;;;;;;;;;
2021/06/20 03:22:18;;;;;;;;;;;;;;;;;;;;;
2021/06/20 03:28:22;;;;;;;35.45;18.48;;;;;;;18.82;74.41;92604.19;5004269;28;20103;-96
2021/06/20 03:31:28;;;;;;;29.73;17.92;;;;;;;18.77;74.47;92596.47;5018121;28;20044;-94
2021/06/20 03:34:32;;;;;;;;;;;;;;;;;;;;;
2021/06/20 03:37:14;;;;;;;36.35;18.27;;;;;;;18.77;74.42;92604.44;5035587;28;20044;-95
2021/06/20 03:39:48;;;;;;;31.33;17.48;;;;;;;18.78;74.73;92613.94;5017505;28;20532;-94
2021/06/20 03:42:45;;;;;;;;;;;;;;;;;;;;;
2021/06/20 03:45:28;;;;;;;32.15;17.30;;;;;;;18.69;74.81;92610.63;5022258;28;20046;-93
2021/06/20 03:48:20;;;;;;;35.42;17.92;;;;;;;18.71;74.66;92629.59;5020128;28;20047;-94
2021/06/20 03:50:51;;;;;;;28.65;17.65;;;;;;;18.69;74.58;92631.84;5019049;28;20095;-95
2021/06/20 03:53:48;;;;;;;33.38;17.95;;;;;;;18.67;74.82;92629.50;5019246;28;20049;-93
2021/06/20 03:56:38;;;;;;;29.88;17.70;;;;;;;18.67;74.50;92644.66;5005224;28;20029;-95
2021/06/20 03:59:19;;;;;;;31.73;17.00;;;;;;;18.70;74.38;92649.28;5001988;28;20030;-96
2021/06/20 04:01:53;;;;;;;33.00;18.15;;;;;;;18.69;74.54;92647.75;5003846;28;20060;-95
2021/06/20 04:04:35;;;;;;;;;;;;;;;;;;;;;
2021/06/20 04:07:54;;;;;;;33.13;18.45;;;;;;;18.76;74.74;92661.22;5036318;28;20112;-95
2021/06/20 04:10:52;;;;;;;32.67;17.92;;;;;;;18.78;74.90;92668.84;4997125;28;20414;-94
2021/06/20 04:13:35;;;;;;;32.92;17.90;;;;;;;18.76;74.81;92673.69;5000336;28;20134;-94
2021/06/20 04:16:46;;;;;;;35.47;18.10;;;;;;;18.75;74.69;92670.25;5038916;28;20091;-95
2021/06/20 04:19:22;;;;;;;36.45;18.48;;;;;;;18.76;74.69;92673.69;4998826;28;20037;-95
2021/06/20 04:22:16;;;;;;;32.27;17.77;;;;;;;18.78;75.15;92682.91;4992970;28;20063;-93
2021/06/20 04:28:22;;;;;;;;;;;;;;;;;;;;;
2021/06/20 04:31:19;;;;;;;29.30;17.85;;;;;;;18.80;75.52;92675.38;5003029;28;20060;-95
2021/06/20 04:34:13;;;;;;;38.42;19.58;;;;;;;18.97;75.39;92678.91;5015726;28;20056;-95
2021/06/20 04:37:01;;;;;;;40.13;20.50;;;;;;;18.96;75.94;92675.47;4995025;28;20029;-94
2021/06/20 04:39:50;;;;;;;;;;;;;;;;;;;;;
2021/06/20 04:46:10;;;;;;;;;;;;;;;;;;;;;
2021/06/20 04:48:46;;;;;;;31.27;18.65;;;;;;;19.04;76.69;92687.06;5016895;28;20029;-94
2021/06/20 04:51:35;;;;;;;34.90;18.55;;;;;;;19.05;76.47;92691.25;4985767;28;20053;-94
2021/06/20 04:54:35;;;;;;;33.35;19.33;;;;;;;19.10;76.16;92686.50;4998590;28;20562;-96
2021/06/20 04:57:49;;;;;;;;;;;;;;;;;;;;;
2021/06/20 05:00:39;;;;;;;;;;;;;;;;;;;;;
2021/06/20 05:03:18;;;;;;;33.45;19.02;;;;;;;19.28;75.76;92660.50;5021072;28;20072;-96
2021/06/20 05:06:21;;;;;;;37.35;19.08;;;;;;;19.35;74.84;92663.34;5020333;28;20476;-95
2021/06/20 05:09:36;;;;;;;;;;;;;;;;;;;;;
2021/06/20 05:13:00;;;;;;;36.35;18.00;;;;;;;19.47;75.17;92669.72;5032906;28;20055;-95
2021/06/20 05:15:57;;;;;;;38.67;18.95;;;;;;;19.47;75.18;92665.19;5016032;28;20486;-95
2021/06/20 05:19:08;;;;;;;34.97;17.85;;;;;;;19.53;74.82;92655.88;5010805;28;20490;-96
2021/06/20 05:21:50;;;;;;;33.80;17.90;;;;;;;19.61;74.61;92648.09;5016798;28;20037;-95
2021/06/20 05:25:07;;;;;;;;;;;;;;;;;;;;;
2021/06/20 05:27:50;;;;;;;28.95;18.05;;;;;;;19.68;74.31;92640.31;5021105;28;20071;-95
2021/06/20 05:31:00;;;;;;;;;;;;;;;;;;;;;
2021/06/20 05:33:42;;;;;;;27.70;17.20;;;;;;;19.80;74.14;92656.25;5028887;28;20097;-95
2021/06/20 05:36:44;;;;;;;34.90;18.42;;;;;;;19.79;74.36;92645.97;4998532;28;20051;-94
2021/06/20 05:39:53;;;;;;;;;;;;;;;;;;;;;
2021/06/20 05:42:43;;;;;;;34.40;17.33;;;;;;;19.81;73.91;92644.50;5056847;28;20119;-95
2021/06/20 05:46:00;;;;;;;;;;;;;;;;;;;;;
2021/06/20 05:49:12;;;;;;;30.27;17.42;;;;;;;19.84;73.36;92627.91;5058267;28;20116;-94
2021/06/20 05:55:11;;;;;;;34.95;16.63;;;;;;;19.85;73.61;92604.78;5005651;28;20129;-94
2021/06/20 06:01:28;;;;;;;26.27;15.82;;;;;;;19.92;72.19;92581.03;5010925;28;20116;-96
2021/06/20 06:04:25;;;;;;;33.65;15.80;;;;;;;20.02;71.22;92583.19;4990996;28;20069;-94
2021/06/20 06:07:49;;;;;;;31.10;15.95;;;;;;;20.10;70.19;92582.25;5017287;28;20045;-94
2021/06/20 06:10:36;;;;;;;30.50;16.10;;;;;;;20.20;69.16;92575.66;5008241;28;20129;-94
2021/06/20 06:13:39;;;;;;;;;;;;;;;;;;;;;
2021/06/20 06:16:34;;;;;;;;;;;;;;;;;;;;;
2021/06/20 06:20:05;;;;;;;;;;;;;;;;;;;;;
2021/06/20 06:23:13;;;;;;;;;;;;;;;;;;;;;
2021/06/20 06:29:02;;;;;;;27.45;16.05;;;;;;;20.64;69.41;92569.47;5007263;28;20092;-94
2021/06/20 06:31:42;;;;;;;;;;;;;;;;;;;;;
2021/06/20 06:34:49;;;;;;;28.65;16.60;;;;;;;20.62;69.65;92587.66;5056200;28;20067;-95
2021/06/20 06:37:54;;;;;;;30.65;16.90;;;;;;;20.49;69.21;92589.59;5025325;28;20033;-95
2021/06/20 06:41:04;;;;;;;30.13;18.20;;;;;;;20.37;70.04;92569.22;5038788;28;20071;-94
2021/06/20 06:44:14;;;;;;;32.72;17.75;;;;;;;20.43;69.94;92562.53;5027203;28;20025;-95
2021/06/20 06:47:02;;;;;;;29.20;16.40;;;;;;;20.50;70.55;92552.03;5050116;28;20057;-95
2021/06/20 06:50:03;;;;;;;26.45;16.83;;;;;;;20.55;71.31;92541.13;5025417;28;20045;-94
2021/06/20 06:53:42;;;;;;;32.95;16.67;;;;;;;20.66;71.55;92533.41;5024786;28;20019;-96
2021/06/20 06:56:22;;;;;;;29.02;16.27;;;;;;;20.78;70.73;92549.28;5054358;28;20076;-93
2021/06/20 06:59:45;;;;;;;30.67;15.82;;;;;;;20.77;70.43;92545.06;5009951;28;20511;-94
2021/06/20 07:02:35;;;;;;;37.75;16.25;;;;;;;20.78;70.48;92533.31;5011404;28;20092;-95
2021/06/20 07:05:36;;;;;;;28.20;17.48;;;;;;;20.75;69.88;92538.53;5035437;28;20037;-93
2021/06/20 07:22:43;;;;;;;32.00;18.23;;;;;;;20.54;71.44;92536.19;5012134;28;20046;-79
2021/06/20 07:25:10;;;;;;;32.63;18.33;;;;;;;20.67;69.24;92536.84;5013780;28;20049;-79
2021/06/20 07:27:36;;;;;;;29.92;17.67;;;;;;;20.42;68.08;92526.41;5016092;28;20037;-79
2021/06/20 07:30:09;;;;;;;35.65;18.60;;;;;;;20.62;67.90;92526.47;4997840;28;20046;-79
2021/06/20 07:32:35;;;;;;;36.22;18.35;;;;;;;20.81;67.07;92521.19;5017046;28;20063;-79
2021/06/20 07:35:01;;;;;;;28.73;18.05;;;;;;;20.57;68.42;92520.31;5030809;28;20097;-78
2021/06/20 07:37:27;;;;;;;34.55;17.77;;;;;;;20.57;67.65;92517.66;5032751;28;20033;-79
2021/06/20 07:39:53;;;;;;;27.17;17.08;;;;;;;20.87;67.16;92506.47;5034350;28;20506;-79
2021/06/20 07:42:18;;;;;;;33.88;17.95;;;;;;;20.86;68.29;92510.28;5013802;28;20099;-78
2021/06/20 07:44:44;;;;;;;35.13;17.45;;;;;;;20.75;68.74;92506.63;5024786;28;20088;-79
2021/06/20 07:47:10;;;;;;;38.05;17.35;;;;;;;20.69;69.64;92516.00;5027041;28;20076;-78
2021/06/20 07:49:35;;;;;;;34.60;17.95;;;;;;;20.87;68.91;92508.38;5025307;28;20387;-79
2021/06/20 07:52:01;;;;;;;34.60;18.52;;;;;;;21.00;69.02;92518.53;5026661;28;20113;-77
2021/06/20 07:54:27;;;;;;;30.77;18.35;;;;;;;20.92;67.91;92518.75;5035438;28;20049;-80
2021/06/20 07:56:53;;;;;;;30.80;18.48;;;;;;;21.18;67.56;92526.88;5036829;28;20083;-78
2021/06/20 07:59:18;;;;;;;36.72;18.52;;;;;;;21.26;67.40;92525.13;5032337;28;20040;-77
2021/06/20 08:01:44;;;;;;;31.55;17.13;;;;;;;21.37;67.59;92536.75;5016774;28;20048;-77
2021/06/20 08:04:10;;;;;;;31.15;17.45;;;;;;;21.54;67.63;92545.44;5036118;28;20041;-80
2021/06/20 08:06:36;;;;;;;35.28;18.05;;;;;;;21.76;67.48;92550.03;5033777;28;20083;-78
2021/06/20 08:09:02;;;;;;;33.42;17.50;;;;;;;21.65;65.16;92546.41;5035093;28;20399;-79
2021/06/20 08:11:28;;;;;;;30.52;16.52;;;;;;;22.06;65.96;92528.06;5030132;28;20376;-77
2021/06/20 08:13:57;;;;;;;26.25;16.08;;;;;;;22.13;65.01;92528.16;5036463;28;20096;-78
2021/06/20 08:16:23;;;;;;;33.28;17.52;;;;;;;21.95;67.61;92533.25;5035423;28;20041;-78
2021/06/20 08:18:48;;;;;;;31.95;19.27;;;;;;;21.68;68.51;92537.69;5035020;28;20048;-78
2021/06/20 08:21:15;;;;;;;32.92;20.08;;;;;;;21.91;69.04;92540.41;5032649;28;20053;-78
2021/06/20 08:23:40;;;;;;;38.20;21.08;;;;;;;22.15;68.10;92530.50;5034952;28;20029;-77
2021/06/20 08:26:06;;;;;;;37.58;20.30;;;;;;;22.22;66.63;92531.41;5034582;28;20045;-78
2021/06/20 08:28:33;;;;;;;35.75;18.73;;;;;;;22.43;66.01;92522.97;5043159;28;20079;-77
2021/06/20 08:31:00;;;;;;;31.73;18.20;;;;;;;22.58;65.60;92526.59;5054681;28;20041;-78
2021/06/20 08:33:25;;;;;;;41.63;18.65;;;;;;;22.83;64.23;92526.94;5055094;28;20056;-77
2021/06/20 08:35:51;;;;;;;33.10;19.25;;;;;;;23.09;63.76;92524.63;5037483;28;20132;-78
2021/06/20 08:38:16;;;;;;;31.08;17.38;;;;;;;23.43;62.58;92514.69;5053552;28;20033;-78
2021/06/20 08:40:43;;;;;;;25.20;17.33;;;;;;;23.65;61.58;92511.09;5054224;28;20029;-78
2021/06/20 08:43:09;;;;;;;32.88;18.35;;;;;;;23.49;63.95;92514.00;5037817;28;20051;-78
2021/06/20 08:45:36;;;;;;;31.65;19.90;;;;;;;22.53;68.03;92521.56;5054756;28;20108;-78
2021/06/20 08:48:02;;;;;;;34.67;21.17;;;;;;;22.59;67.62;92530.81;5037134;28;20044;-78
2021/06/20 08:50:28;;;;;;;33.97;21.20;;;;;;;22.60;69.24;92523.56;5038070;28;20045;-78
2021/06/20 08:52:55;;;;;;;35.13;23.02;;;;;;;22.42;69.79;92515.31;5056425;28;20055;-78
2021/06/20 08:55:22;;;;;;;39.25;23.02;;;;;;;22.53;69.50;92513.56;5055332;28;20029;-78
2021/06/20 08:57:48;;;;;;;34.60;21.90;;;;;;;22.38;69.32;92511.81;5067469;28;20094;-77
2021/06/20 09:00:18;;;;;;;40.10;22.48;;;;;;;22.68;69.07;92511.88;5054261;28;20040;-77
2021/06/20 09:02:55;;;;;;;34.92;21.25;;;;;;;;;;5053375;28;20406;-78
2021/06/20 09:05:20;;;;;;;31.42;19.40;;;;;;;23.15;66.26;92509.81;5054354;28;20036;-77
2021/06/20 09:07:46;;;;;;;32.58;18.48;;;;;;;23.51;62.60;92505.63;5054444;28;20040;-78
2021/06/20 09:10:20;;;;;;;34.25;20.27;;;;;;;23.93;62.55;92501.06;5054283;28;20032;-78
2021/06/20 09:12:54;;;;;;;34.70;20.02;;;;;;;24.13;63.38;92494.34;5054474;28;20025;-78
2021/06/20 09:15:22;;;;;;;35.60;20.85;;;;;;;23.85;63.83;92495.66;5054294;28;20041;-77
2021/06/20 09:17:53;;;;;;;34.15;20.67;;;;;;;23.64;64.19;92487.41;5046944;28;20033;-77
2021/06/20 09:20:30;;;;;;;34.97;20.65;;;;;;;23.37;64.73;92489.44;5026086;28;20066;-77
2021/06/20 09:22:57;;;;;;;36.70;21.15;;;;;;;23.68;63.99;92480.22;4996814;28;20048;-77
2021/06/20 09:25:29;;;;;;;33.53;20.38;;;;;;;23.40;64.64;92478.03;5014665;28;20044;-77
2021/06/20 09:27:59;;;;;;;33.25;20.90;;;;;;;23.31;64.71;92491.69;4996631;28;20050;-78
2021/06/20 09:30:29;;;;;;;36.92;21.67;;;;;;;23.51;62.73;92499.50;5013202;28;20065;-78
2021/06/20 09:32:57;;;;;;;34.38;19.35;;;;;;;23.46;63.81;92488.03;5014421;28;20455;-77
2021/06/20 09:35:24;;;;;;;35.83;19.88;;;;;;;24.01;61.40;92486.63;5014205;28;20053;-77
2021/06/20 09:37:54;;;;;;;33.05;18.90;;;;;;;23.93;61.62;92487.72;5013736;28;20121;-78
2021/06/20 09:40:26;;;;;;;33.08;18.25;;;;;;;24.33;59.15;92486.88;5014270;28;20464;-77
2021/06/20 09:42:52;;;;;;;26.90;16.15;;;;;;;24.52;55.20;92475.19;5012618;28;20475;-78
2021/06/20 09:45:31;;;;;;;29.80;15.77;;;;;;;24.30;55.33;92461.63;5014014;28;20084;-78
2021/06/20 09:47:58;;;;;;;40.05;18.58;;;;;;;23.86;60.36;92465.13;5012988;28;20041;-77
2021/06/20 09:50:38;;;;;;;31.42;17.92;;;;;;;23.54;61.81;92461.38;5014110;28;20049;-77
2021/06/20 09:53:04;;;;;;;30.30;18.73;;;;;;;23.67;62.07;92466.09;4996957;28;20045;-77
2021/06/20 09:55:30;;;;;;;39.03;20.58;;;;;;;23.86;61.39;92462.44;5013303;28;20566;-77
2021/06/20 09:58:01;;;;;;;33.60;19.35;;;;;;;23.85;60.86;92463.59;5012547;28;20038;-78
2021/06/20 10:00:36;;;;;;;37.78;19.95;;;;;;;23.84;62.20;92472.75;5014020;28;20045;-77
2021/06/20 10:03:02;;;;;;;31.25;19.30;;;;;;;23.90;62.31;92468.59;5013621;28;20034;-78
2021/06/20 10:05:28;;;;;;;38.92;20.40;;;;;;;23.92;62.50;92470.16;5012315;28;20460;-78
2021/06/20 10:07:53;;;;;;;37.40;19.48;;;;;;;23.68;63.29;92472.94;5013164;28;20095;-78
2021/06/20 10:10:19;;;;;;;35.55;18.77;;;;;;;23.85;61.65;92476.19;5013603;28;20120;-77
2021/06/20 10:12:45;;;;;;;36.47;18.58;;;;;;;24.18;60.57;92467.25;4992749;28;20041;-78
2021/06/20 10:15:15;;;;;;;32.67;19.60;;;;;;;24.48;59.71;92471.72;4994118;28;20555;-78
2021/06/20 10:17:50;;;;;;;33.55;19.98;;;;;;;24.55;58.87;92471.00;4982902;28;20034;-79
2021/06/20 10:20:18;;;;;;;31.02;16.80;;;;;;;24.35;57.81;92467.78;5011365;28;20046;-78
2021/06/20 10:22:46;;;;;;;33.00;16.48;;;;;;;24.28;57.98;92463.91;5013850;28;20121;-79
2021/06/20 10:25:40;;;;;;;37.22;18.73;;;;;;;23.71;60.00;92455.44;4993952;28;20041;-78
2021/06/20 10:28:11;;;;;;;36.58;18.63;;;;;;;24.20;58.58;92454.28;5009685;28;20034;-77
2021/06/20 10:30:36;;;;;;;31.85;17.38;;;;;;;24.65;56.85;92463.00;5012336;28;20034;-77
2021/06/20 10:33:21;;;;;;;26.77;17.20;;;;;;;24.09;59.34;92466.81;5016011;28;20080;-77
2021/06/20 10:36:01;;;;;;;32.17;16.92;;;;;;;24.24;56.87;92471.13;4996908;28;20060;-76
2021/06/20 10:38:38;;;;;;;34.08;17.95;;;;;;;24.53;57.23;92463.31;5016113;28;20387;-77
2021/06/20 10:41:05;;;;;;;30.25;16.80;;;;;;;24.42;56.79;92468.56;4991920;28;20045;-77
2021/06/20 10:43:31;;;;;;;37.15;17.23;;;;;;;24.55;57.94;92461.03;5010027;28;20044;-77
2021/06/20 10:45:56;;;;;;;37.65;16.83;;;;;;;24.67;56.04;92474.09;5019857;28;20034;-76
2021/06/20 10:48:24;;;;;;;39.13;17.30;;;;;;;24.93;54.72;92466.97;5014341;28;20091;-77
2021/06/20 10:50:53;;;;;;;27.88;16.08;;;;;;;25.26;55.43;92470.53;5029567;28;20137;-77
2021/06/20 10:53:20;;;;;;;29.38;17.13;;;;;;;25.17;55.65;92467.44;5027927;28;20120;-77
2021/06/20 10:55:48;;;;;;;27.30;15.57;;;;;;;24.92;55.58;92478.81;5018118;28;20380;-77
2021/06/20 10:58:28;;;;;;;30.10;17.17;;;;;;;25.01;56.52;92465.84;5019146;28;20074;-77
2021/06/20 11:01:15;;;;;;;30.60;16.77;;;;;;;24.86;56.37;92464.28;5017199;28;20049;-78
2021/06/20 11:03:53;;;;;;;33.60;16.67;;;;;;;24.78;56.41;92465.38;5016750;28;20419;-77
2021/06/20 11:06:23;;;;;;;26.55;16.15;;;;;;;25.24;57.92;92460.22;5023282;28;20038;-78
2021/06/20 11:08:52;;;;;;;36.47;16.73;;;;;;;25.45;55.58;92453.38;5006743;28;20037;-77
2021/06/20 11:11:30;;;;;;;33.15;16.42;;;;;;;24.84;57.11;92447.81;5015621;28;20045;-78
2021/06/20 11:13:56;;;;;;;36.30;15.80;;;;;;;25.30;54.72;92447.97;4996997;28;20049;-78
2021/06/20 11:16:32;;;;;;;31.35;16.23;;;;;;;25.50;54.38;92436.94;5015008;28;20041;-80
2021/06/20 11:19:15;;;;;;;31.55;14.68;;;;;;;25.42;54.52;92430.00;5018980;28;20034;-78
2021/06/20 11:21:41;;;;;;;37.25;14.60;;;;;;;25.72;54.07;92424.31;5022359;28;20516;-78
2021/06/20 11:24:07;;;;;;;34.22;15.77;;;;;;;25.95;53.90;92426.63;5011942;28;20034;-77
2021/06/20 11:26:33;;;;;;;34.88;15.52;;;;;;;26.10;52.54;92430.09;5022644;28;20018;-77
2021/06/20 11:29:04;;;;;;;32.75;14.75;;;;;;;25.10;53.84;92436.78;5032944;28;20056;-78
2021/06/20 11:31:30;;;;;;;30.92;13.73;;;;;;;25.34;53.62;92431.91;5029820;28;20036;-77
2021/06/20 11:33:57;;;;;;;34.72;14.45;;;;;;;25.40;54.29;92427.72;5019387;28;20411;-77
2021/06/20 11:36:26;;;;;;;40.90;14.73;;;;;;;25.54;53.36;92424.31;5015351;28;20037;-76
2021/06/20 11:38:52;;;;;;;32.70;14.57;;;;;;;25.76;51.92;92428.53;5015044;28;20498;-76
2021/06/20 11:41:20;;;;;;;34.92;14.30;;;;;;;25.95;52.28;92432.00;4996642;28;20120;-76
2021/06/20 11:44:00;;;;;;;31.13;14.80;;;;;;;26.01;52.22;92425.13;5014689;28;20100;-76
2021/06/20 11:46:32;;;;;;;34.40;14.30;;;;;;;25.72;53.35;92424.31;5014563;28;20125;-77
2021/06/20 11:49:00;;;;;;;;;;;;;;;25.23;53.77;92415.81;5015192;28;20043;-76
2021/06/20 11:51:41;;;;;;;37.33;14.63;;;;;;;25.49;53.69;92416.66;4996751;28;19946;-76
2021/06/20 11:54:11;;;;;;;38.65;14.57;;;;;;;25.51;54.36;92407.06;5015209;28;20030;-77
2021/06/20 11:56:39;;;;;;;47.92;15.32;;;;;;;25.64;51.96;92404.00;4995344;28;20034;-78
2021/06/20 11:59:06;;;;;;;37.03;14.63;;;;;;;26.37;50.22;92404.34;4995452;28;20597;-78
2021/06/20 12:01:44;;;;;;;36.80;14.32;;;;;;;26.40;51.86;92396.69;5011563;28;20243;-79
2021/06/20 12:04:13;;;;;;;35.20;13.50;;;;;;;26.17;51.56;92393.28;4996082;28;20040;-77
2021/06/20 12:06:39;;;;;;;36.45;14.68;;;;;;;26.10;51.77;92395.22;5002017;28;20026;-78
2021/06/20 12:09:09;;;;;;;34.63;14.18;;;;;;;26.43;49.54;92391.31;5036160;28;20515;-76
2021/06/20 12:11:38;;;;;;;31.08;13.60;;;;;;;25.40;52.59;92382.19;5025106;28;20042;-78
2021/06/20 12:14:05;;;;;;;28.00;13.73;;;;;;;25.77;52.16;92391.75;5002243;28;20045;-77
2021/06/20 12:16:31;;;;;;;39.10;15.38;;;;;;;26.02;52.10;92383.72;5016951;28;20040;-79
2021/06/20 12:18:59;;;;;;;37.45;14.32;;;;;;;26.43;51.66;92372.50;5015130;28;20384;-77
2021/06/20 12:21:30;;;;;;;40.25;14.90;;;;;;;26.87;50.62;92370.47;5008182;28;20081;-78
2021/06/20 12:23:58;;;;;;;37.70;14.55;;;;;;;27.25;47.03;92371.44;4979854;28;20064;-78
2021/06/20 12:26:50;;;;;;;28.70;13.32;;;;;;;27.33;46.74;92353.34;4995960;28;20026;-78
2021/06/20 12:29:17;;;;;;;40.92;14.05;;;;;;;27.26;48.85;92364.16;4979454;28;20380;-77
2021/06/20 12:31:58;;;;;;;37.50;14.65;;;;;;;26.61;49.63;92364.44;4996087;28;20038;-78
2021/06/20 12:34:24;;;;;;;35.88;13.80;;;;;;;26.73;49.83;92357.88;4997612;28;20052;-78
2021/06/20 12:36:59;;;;;;;29.77;13.75;;;;;;;26.36;53.49;92364.50;4979524;28;20049;-78
2021/06/20 12:39:25;;;;;;;38.65;15.00;;;;;;;26.37;51.69;92366.03;4980121;28;20030;-78
2021/06/20 12:41:59;;;;;;;38.60;14.85;;;;;;;26.32;51.09;92359.16;4996510;28;20118;-78
2021/06/20 12:44:26;;;;;;;40.35;14.60;;;;;;;26.50;49.53;92351.03;4996405;28;20069;-78
2021/06/20 12:46:52;;;;;;;37.33;14.57;;;;;;;26.53;49.10;92352.19;4997147;28;20050;-78
2021/06/20 12:49:18;;;;;;;44.83;13.77;;;;;;;26.98;48.59;92349.69;4979726;28;20034;-78
2021/06/20 12:51:50;;;;;;;32.20;14.85;;;;;;;26.68;49.78;92353.69;4997018;28;20043;-77
2021/06/20 12:54:20;;;;;;;46.90;14.15;;;;;;;26.66;48.78;92356.00;4996605;28;20559;-78
2021/06/20 12:56:46;;;;;;;56.97;15.60;;;;;;;26.93;47.71;92361.63;4995820;28;20066;-77
2021/06/20 12:59:13;;;;;;;39.22;14.90;;;;;;;27.16;49.20;92360.34;4995559;28;20129;-79
2021/06/20 13:01:49;;;;;;;38.53;14.15;;;;;;;27.60;48.48;92351.59;4997035;28;20042;-78
2021/06/20 13:04:17;;;;;;;28.42;13.27;;;;;;;27.72;48.08;92353.06;4997820;28;20515;-78
2021/06/20 13:06:44;;;;;;;30.17;13.30;;;;;;;26.73;48.73;92374.75;4996143;28;20078;-77
2021/06/20 13:09:11;;;;;;;36.17;13.50;;;;;;;27.15;48.31;92375.69;4978014;28;20034;-77
2021/06/20 13:11:38;;;;;;;39.65;14.55;;;;;;;27.05;46.70;92371.16;4978516;28;20397;-78
2021/06/20 13:14:15;;;;;;;39.97;16.30;;;;;;;26.93;47.41;92371.56;4978791;28;20077;-78
2021/06/20 13:16:43;;;;;;;41.97;14.73;;;;;;;26.94;50.00;92367.75;4996224;28;20492;-78
2021/06/20 13:19:08;;;;;;;37.55;13.55;;;;;;;26.64;50.59;92371.72;4995302;28;20117;-78
2021/06/20 13:21:35;;;;;;;30.92;12.40;;;;;;;26.49;50.45;92370.22;4994175;28;20145;-76
2021/06/20 13:24:01;;;;;;;40.13;12.68;;;;;;;26.08;51.19;92376.06;4995988;28;20090;-76
2021/06/20 13:26:34;;;;;;;30.77;12.18;;;;;;;25.68;51.64;92377.97;4994287;28;20038;-77
2021/06/20 13:29:00;;;;;;;35.55;12.10;;;;;;;25.62;52.48;92387.53;4993530;28;20034;-77
2021/06/20 13:31:25;;;;;;;33.70;12.30;;;;;;;24.94;54.51;92398.88;4976716;28;20081;-77
2021/06/20 13:33:55;;;;;;;43.83;12.55;;;;;;;25.04;52.53;92392.81;5005275;28;20053;-76
2021/06/20 13:36:21;;;;;;;41.50;12.73;;;;;;;24.97;55.08;92392.78;5004090;28;20042;-77
2021/06/20 13:38:47;;;;;;;42.80;12.48;;;;;;;24.99;54.29;92385.13;4998774;28;20045;-77
2021/06/20 13:41:13;;;;;;;45.03;13.20;;;;;;;25.00;53.21;92384.00;5002768;28;20034;-77
2021/06/20 13:43:38;;;;;;;32.60;11.25;;;;;;;24.80;53.96;92382.78;4993400;28;20030;-77
2021/06/20 13:46:04;;;;;;;37.50;11.15;;;;;;;24.91;53.22;92387.03;4992976;28;20042;-75
2021/06/20 13:48:29;;;;;;;32.72;10.70;;;;;;;24.50;54.34;92402.56;4991368;28;20046;-76
2021/06/20 13:50:56;;;;;;;36.25;11.43;;;;;;;24.58;53.98;92409.44;4991999;28;20053;-76
2021/06/20 13:53:22;;;;;;;45.58;11.63;;;;;;;24.53;53.46;92409.81;4974343;28;20096;-76
2021/06/20 13:55:48;;;;;;;43.38;10.98;;;;;;;24.28;54.17;92418.44;4992091;28;20117;-76